DAL234 GMTT-LEPA
Flight info
| Callsign | DAL234 |
|---|---|
| Flight time | 1h 16m |
| Altitude | 18000 |
| Route | LAMAD M143 GALTO/N0443F340 N869 PIMOS M445 RIXUR N851 RUXET |
| Aircraft | A320/M-SDE3FGHIRWY/LB1 |
Departure
| Time | 2026-05-05 17:44 |
|---|---|
| Airport | Tangier Ibn Battuta Airport (GMTT) |
Arrival
| Time | 2026-05-05 19:00 |
|---|---|
| Airport | Palma de Mallorca Airport (LEPA) |
| Time | Latitude | Longitude | Altitude | Speed | Heading |
|---|---|---|---|---|---|
| 2026-05-05 16:56 | 35.72541 | -5.91058 | 50 ft | 0 kts | 356° |
| 2026-05-05 17:30 | 35.72516 | -5.91056 | 49 ft | 4 kts | 356° |
| 2026-05-05 17:30 | 35.72489 | -5.91054 | 49 ft | 4 kts | 356° |
| 2026-05-05 17:30 | 35.72462 | -5.91052 | 49 ft | 4 kts | 356° |
| 2026-05-05 17:31 | 35.72454 | -5.91051 | 49 ft | 0 kts | 356° |
| 2026-05-05 17:33 | 35.72464 | -5.91069 | 49 ft | 4 kts | 279° |
| 2026-05-05 17:33 | 35.72458 | -5.91103 | 49 ft | 4 kts | 253° |
| 2026-05-05 17:34 | 35.72449 | -5.91169 | 48 ft | 12 kts | 262° |
| 2026-05-05 17:34 | 35.72436 | -5.91290 | 46 ft | 16 kts | 263° |
| 2026-05-05 17:34 | 35.72431 | -5.91353 | 46 ft | 6 kts | 266° |
| 2026-05-05 17:34 | 35.72429 | -5.91403 | 45 ft | 6 kts | 268° |
| 2026-05-05 17:35 | 35.72428 | -5.91452 | 44 ft | 6 kts | 268° |
| 2026-05-05 17:35 | 35.72426 | -5.91500 | 44 ft | 6 kts | 268° |
| 2026-05-05 17:35 | 35.72425 | -5.91548 | 40 ft | 6 kts | 270° |
| 2026-05-05 17:35 | 35.72433 | -5.91602 | 42 ft | 8 kts | 290° |
| 2026-05-05 17:36 | 35.72478 | -5.91665 | 40 ft | 10 kts | 323° |
| 2026-05-05 17:36 | 35.72541 | -5.91693 | 41 ft | 9 kts | 352° |
| 2026-05-05 17:36 | 35.72601 | -5.91696 | 41 ft | 8 kts | 1° |
| 2026-05-05 17:36 | 35.72652 | -5.91697 | 41 ft | 7 kts | 356° |
| 2026-05-05 17:37 | 35.72700 | -5.91704 | 41 ft | 9 kts | 352° |
| 2026-05-05 17:37 | 35.72749 | -5.91711 | 40 ft | 11 kts | 356° |
| 2026-05-05 17:37 | 35.72840 | -5.91719 | 40 ft | 9 kts | 355° |
| 2026-05-05 17:37 | 35.72898 | -5.91722 | 40 ft | 8 kts | 4° |
| 2026-05-05 17:38 | 35.72937 | -5.91693 | 39 ft | 6 kts | 56° |
| 2026-05-05 17:38 | 35.72943 | -5.91641 | 41 ft | 11 kts | 92° |
| 2026-05-05 17:38 | 35.72933 | -5.91521 | 43 ft | 13 kts | 97° |
| 2026-05-05 17:38 | 35.72923 | -5.91422 | 44 ft | 10 kts | 97° |
| 2026-05-05 17:39 | 35.72917 | -5.91370 | 45 ft | 8 kts | 97° |
| 2026-05-05 17:39 | 35.72908 | -5.91286 | 46 ft | 15 kts | 97° |
| 2026-05-05 17:39 | 35.72893 | -5.91134 | 48 ft | 17 kts | 97° |
| 2026-05-05 17:39 | 35.72882 | -5.90999 | 50 ft | 15 kts | 96° |
| 2026-05-05 17:40 | 35.72871 | -5.90885 | 48 ft | 12 kts | 97° |
| 2026-05-05 17:40 | 35.72862 | -5.90795 | 52 ft | 9 kts | 97° |
| 2026-05-05 17:40 | 35.72855 | -5.90724 | 53 ft | 7 kts | 97° |
| 2026-05-05 17:40 | 35.72848 | -5.90662 | 53 ft | 12 kts | 97° |
| 2026-05-05 17:41 | 35.72834 | -5.90516 | 54 ft | 16 kts | 96° |
| 2026-05-05 17:41 | 35.72825 | -5.90416 | 50 ft | 9 kts | 97° |
| 2026-05-05 17:41 | 35.72819 | -5.90353 | 52 ft | 6 kts | 95° |
| 2026-05-05 17:41 | 35.72817 | -5.90293 | 54 ft | 10 kts | 88° |
| 2026-05-05 17:42 | 35.72844 | -5.90220 | 53 ft | 9 kts | 46° |
| 2026-05-05 17:42 | 35.72896 | -5.90190 | 52 ft | 8 kts | 9° |
| 2026-05-05 17:42 | 35.72948 | -5.90202 | 58 ft | 7 kts | 335° |
| 2026-05-05 17:42 | 35.72992 | -5.90272 | 57 ft | 19 kts | 286° |
| 2026-05-05 17:43 | 35.73032 | -5.90656 | 54 ft | 80 kts | 277° |
| 2026-05-05 17:43 | 35.73119 | -5.91594 | 42 ft | 139 kts | 277° |
| 2026-05-05 17:43 | 35.73246 | -5.92973 | 105 ft | 179 kts | 277° |
| 2026-05-05 17:43 | 35.73379 | -5.94561 | 563 ft | 197 kts | 276° |
| 2026-05-05 17:44 | 35.73555 | -5.96323 | 1023 ft | 215 kts | 279° |
| 2026-05-05 17:44 | 35.73789 | -5.98146 | 1801 ft | 221 kts | 279° |
| 2026-05-05 17:44 | 35.73993 | -6.00026 | 2683 ft | 223 kts | 270° |
| 2026-05-05 17:44 | 35.73722 | -6.01897 | 3551 ft | 225 kts | 248° |
| 2026-05-05 17:45 | 35.72858 | -6.03511 | 4365 ft | 231 kts | 225° |
| 2026-05-05 17:45 | 35.71499 | -6.04594 | 5140 ft | 238 kts | 201° |
| 2026-05-05 17:45 | 35.69856 | -6.04915 | 5903 ft | 244 kts | 176° |
| 2026-05-05 17:45 | 35.68206 | -6.04361 | 6667 ft | 250 kts | 151° |
| 2026-05-05 17:46 | 35.66878 | -6.02984 | 7441 ft | 253 kts | 126° |
| 2026-05-05 17:46 | 35.66140 | -6.01029 | 8226 ft | 255 kts | 100° |
| 2026-05-05 17:46 | 35.66148 | -5.98855 | 8998 ft | 257 kts | 75° |
| 2026-05-05 17:46 | 35.66768 | -5.96783 | 9704 ft | 262 kts | 67° |
| 2026-05-05 17:47 | 35.67452 | -5.94724 | 9934 ft | 264 kts | 67° |
| 2026-05-05 17:47 | 35.68146 | -5.92631 | 9999 ft | 265 kts | 67° |
| 2026-05-05 17:47 | 35.68837 | -5.90531 | 10010 ft | 264 kts | 67° |
| 2026-05-05 17:47 | 35.69526 | -5.88431 | 10024 ft | 266 kts | 67° |
| 2026-05-05 17:48 | 35.70219 | -5.86310 | 10701 ft | 268 kts | 68° |
| 2026-05-05 17:48 | 35.70924 | -5.84174 | 11450 ft | 273 kts | 65° |
| 2026-05-05 17:48 | 35.71827 | -5.82013 | 11745 ft | 296 kts | 60° |
| 2026-05-05 17:48 | 35.72884 | -5.79727 | 11981 ft | 319 kts | 59° |
| 2026-05-05 17:49 | 35.74053 | -5.77291 | 12201 ft | 342 kts | 58° |
| 2026-05-05 17:49 | 35.75309 | -5.74694 | 12467 ft | 362 kts | 58° |
| 2026-05-05 17:49 | 35.76588 | -5.72035 | 13057 ft | 369 kts | 59° |
| 2026-05-05 17:49 | 35.77895 | -5.69291 | 13724 ft | 374 kts | 59° |
| 2026-05-05 17:50 | 35.79207 | -5.66511 | 14388 ft | 378 kts | 59° |
| 2026-05-05 17:50 | 35.80528 | -5.63693 | 15032 ft | 382 kts | 59° |
| 2026-05-05 17:50 | 35.81858 | -5.60847 | 15681 ft | 385 kts | 59° |
| 2026-05-05 17:50 | 35.83201 | -5.57974 | 16296 ft | 389 kts | 59° |
| 2026-05-05 17:51 | 35.84557 | -5.55073 | 16903 ft | 393 kts | 59° |
| 2026-05-05 17:51 | 35.85930 | -5.52142 | 17497 ft | 396 kts | 59° |
| 2026-05-05 17:51 | 35.87311 | -5.49189 | 18085 ft | 400 kts | 59° |
| 2026-05-05 17:51 | 35.88703 | -5.46206 | 18660 ft | 403 kts | 59° |
| 2026-05-05 17:52 | 35.90091 | -5.43233 | 19200 ft | 408 kts | 59° |
| 2026-05-05 17:52 | 35.91513 | -5.40184 | 19748 ft | 412 kts | 59° |
| 2026-05-05 17:52 | 35.92947 | -5.37108 | 20285 ft | 416 kts | 59° |
| 2026-05-05 17:52 | 35.94392 | -5.34000 | 20802 ft | 420 kts | 59° |
| 2026-05-05 17:53 | 35.95850 | -5.30859 | 21317 ft | 424 kts | 59° |
| 2026-05-05 17:53 | 35.97319 | -5.27688 | 21806 ft | 427 kts | 59° |
| 2026-05-05 17:53 | 35.98801 | -5.24494 | 22276 ft | 431 kts | 59° |
| 2026-05-05 17:53 | 36.00298 | -5.21270 | 22725 ft | 434 kts | 59° |
| 2026-05-05 17:54 | 36.01809 | -5.18023 | 23168 ft | 438 kts | 59° |
| 2026-05-05 17:54 | 36.03332 | -5.14749 | 23597 ft | 441 kts | 59° |
| 2026-05-05 17:54 | 36.04864 | -5.11453 | 24003 ft | 445 kts | 59° |
| 2026-05-05 17:54 | 36.06391 | -5.08164 | 24424 ft | 449 kts | 59° |
| 2026-05-05 17:55 | 36.07939 | -5.04802 | 24831 ft | 453 kts | 59° |
| 2026-05-05 17:55 | 36.09501 | -5.01405 | 25284 ft | 455 kts | 60° |
| 2026-05-05 17:55 | 36.11056 | -4.97997 | 25669 ft | 455 kts | 60° |
| 2026-05-05 17:55 | 36.12617 | -4.94575 | 26006 ft | 459 kts | 59° |
| 2026-05-05 17:56 | 36.14215 | -4.91142 | 26370 ft | 461 kts | 57° |
| 2026-05-05 17:56 | 36.16126 | -4.87953 | 26713 ft | 463 kts | 47° |
| 2026-05-05 17:56 | 36.18354 | -4.85068 | 27092 ft | 464 kts | 44° |
| 2026-05-05 17:56 | 36.20609 | -4.82199 | 27423 ft | 466 kts | 44° |
| 2026-05-05 17:57 | 36.22867 | -4.79309 | 27742 ft | 468 kts | 44° |
| 2026-05-05 17:57 | 36.25095 | -4.76436 | 28045 ft | 470 kts | 45° |
| 2026-05-05 17:57 | 36.27356 | -4.73501 | 28345 ft | 472 kts | 45° |
| 2026-05-05 17:57 | 36.29626 | -4.70552 | 28621 ft | 474 kts | 45° |
| 2026-05-05 17:58 | 36.31892 | -4.67605 | 28888 ft | 476 kts | 45° |
| 2026-05-05 17:58 | 36.34191 | -4.64617 | 29152 ft | 477 kts | 45° |
| 2026-05-05 17:58 | 36.36487 | -4.61636 | 29397 ft | 479 kts | 45° |
| 2026-05-05 17:58 | 36.38796 | -4.58641 | 29643 ft | 481 kts | 45° |
| 2026-05-05 17:59 | 36.41113 | -4.55637 | 29874 ft | 482 kts | 45° |
| 2026-05-05 17:59 | 36.43434 | -4.52623 | 30096 ft | 484 kts | 45° |
| 2026-05-05 17:59 | 36.45759 | -4.49596 | 30361 ft | 484 kts | 45° |
| 2026-05-05 17:59 | 36.48049 | -4.46610 | 30669 ft | 483 kts | 45° |
| 2026-05-05 18:00 | 36.50363 | -4.43588 | 30970 ft | 482 kts | 45° |
| 2026-05-05 18:00 | 36.52672 | -4.40572 | 31268 ft | 482 kts | 45° |
| 2026-05-05 18:00 | 36.54981 | -4.37555 | 31554 ft | 481 kts | 45° |
| 2026-05-05 18:00 | 36.57286 | -4.34542 | 31844 ft | 481 kts | 45° |
| 2026-05-05 18:01 | 36.59591 | -4.31533 | 32136 ft | 480 kts | 45° |
| 2026-05-05 18:01 | 36.61893 | -4.28528 | 32422 ft | 479 kts | 45° |
| 2026-05-05 18:01 | 36.64187 | -4.25524 | 32697 ft | 479 kts | 45° |
| 2026-05-05 18:01 | 36.66478 | -4.22519 | 32972 ft | 478 kts | 45° |
| 2026-05-05 18:02 | 36.68762 | -4.19515 | 33246 ft | 477 kts | 45° |
| 2026-05-05 18:02 | 36.71044 | -4.16506 | 33525 ft | 477 kts | 45° |
| 2026-05-05 18:02 | 36.73321 | -4.13504 | 33779 ft | 477 kts | 45° |
| 2026-05-05 18:02 | 36.75566 | -4.10538 | 33924 ft | 476 kts | 45° |
| 2026-05-05 18:03 | 36.77838 | -4.07535 | 33954 ft | 475 kts | 45° |
| 2026-05-05 18:03 | 36.82369 | -4.01551 | 33965 ft | 474 kts | 45° |
| 2026-05-05 18:04 | 36.86902 | -3.95562 | 33966 ft | 474 kts | 45° |
| 2026-05-05 18:04 | 36.91434 | -3.89563 | 33965 ft | 475 kts | 45° |
| 2026-05-05 18:05 | 36.95962 | -3.83554 | 33972 ft | 475 kts | 45° |
| 2026-05-05 18:05 | 37.00492 | -3.77532 | 33972 ft | 475 kts | 45° |
| 2026-05-05 18:06 | 37.04984 | -3.71550 | 33975 ft | 475 kts | 45° |
| 2026-05-05 18:06 | 37.09480 | -3.65472 | 33985 ft | 476 kts | 49° |
| 2026-05-05 18:07 | 37.12966 | -3.58436 | 34000 ft | 478 kts | 63° |
| 2026-05-05 18:07 | 37.15918 | -3.50957 | 34008 ft | 479 kts | 63° |
| 2026-05-05 18:08 | 37.18876 | -3.43468 | 34012 ft | 479 kts | 63° |
| 2026-05-05 18:08 | 37.21812 | -3.36029 | 34020 ft | 479 kts | 63° |
| 2026-05-05 18:09 | 37.24763 | -3.28532 | 34024 ft | 479 kts | 63° |
| 2026-05-05 18:09 | 37.27707 | -3.21026 | 34022 ft | 479 kts | 63° |
| 2026-05-05 18:10 | 37.30644 | -3.13513 | 34016 ft | 479 kts | 63° |
| 2026-05-05 18:10 | 37.33581 | -3.05999 | 34011 ft | 479 kts | 63° |
| 2026-05-05 18:11 | 37.36488 | -2.98527 | 34007 ft | 479 kts | 63° |
| 2026-05-05 18:11 | 37.39407 | -2.91000 | 33997 ft | 479 kts | 63° |
| 2026-05-05 18:12 | 37.42325 | -2.83468 | 33990 ft | 479 kts | 63° |
| 2026-05-05 18:12 | 37.45239 | -2.75938 | 33978 ft | 478 kts | 63° |
| 2026-05-05 18:13 | 37.48145 | -2.68399 | 33975 ft | 479 kts | 64° |
| 2026-05-05 18:13 | 37.51048 | -2.60843 | 33958 ft | 479 kts | 64° |
| 2026-05-05 18:14 | 37.53926 | -2.53334 | 33955 ft | 480 kts | 64° |
| 2026-05-05 18:14 | 37.56828 | -2.45758 | 33951 ft | 480 kts | 64° |
| 2026-05-05 18:15 | 37.59724 | -2.38172 | 33936 ft | 480 kts | 64° |
| 2026-05-05 18:15 | 37.62616 | -2.30570 | 33933 ft | 481 kts | 64° |
| 2026-05-05 18:16 | 37.65509 | -2.22961 | 33926 ft | 481 kts | 64° |
| 2026-05-05 18:16 | 37.68399 | -2.15346 | 33948 ft | 482 kts | 64° |
| 2026-05-05 18:17 | 37.71288 | -2.07709 | 33932 ft | 482 kts | 64° |
| 2026-05-05 18:17 | 37.74153 | -2.00117 | 33918 ft | 482 kts | 64° |
| 2026-05-05 18:18 | 37.77039 | -1.92465 | 33912 ft | 482 kts | 64° |
| 2026-05-05 18:18 | 37.79915 | -1.84807 | 33906 ft | 482 kts | 64° |
| 2026-05-05 18:19 | 37.82792 | -1.77140 | 33905 ft | 482 kts | 64° |
| 2026-05-05 18:19 | 37.85658 | -1.69468 | 33905 ft | 482 kts | 64° |
| 2026-05-05 18:20 | 37.88518 | -1.61782 | 33911 ft | 483 kts | 64° |
| 2026-05-05 18:20 | 37.91354 | -1.54142 | 33943 ft | 483 kts | 64° |
| 2026-05-05 18:21 | 37.94209 | -1.46456 | 33925 ft | 482 kts | 64° |
| 2026-05-05 18:21 | 37.97056 | -1.38759 | 33920 ft | 482 kts | 64° |
| 2026-05-05 18:22 | 37.99895 | -1.31058 | 33914 ft | 482 kts | 64° |
| 2026-05-05 18:22 | 38.02732 | -1.23348 | 33906 ft | 483 kts | 64° |
| 2026-05-05 18:23 | 38.05570 | -1.15623 | 33901 ft | 483 kts | 64° |
| 2026-05-05 18:23 | 38.08388 | -1.07941 | 33896 ft | 483 kts | 64° |
| 2026-05-05 18:24 | 38.11179 | -1.00289 | 33896 ft | 484 kts | 65° |
| 2026-05-05 18:24 | 38.13996 | -0.92531 | 33899 ft | 484 kts | 65° |
| 2026-05-05 18:25 | 38.16808 | -0.84770 | 33900 ft | 483 kts | 65° |
| 2026-05-05 18:25 | 38.19620 | -0.77003 | 33905 ft | 484 kts | 65° |
| 2026-05-05 18:26 | 38.22421 | -0.69283 | 33910 ft | 484 kts | 65° |
| 2026-05-05 18:26 | 38.25229 | -0.61498 | 33913 ft | 485 kts | 65° |
| 2026-05-05 18:27 | 38.27990 | -0.53673 | 33919 ft | 485 kts | 66° |
| 2026-05-05 18:27 | 38.30542 | -0.45723 | 33926 ft | 485 kts | 68° |
| 2026-05-05 18:28 | 38.34255 | -0.33728 | 33929 ft | 486 kts | 68° |
| 2026-05-05 18:28 | 38.36766 | -0.25802 | 33925 ft | 485 kts | 67° |
| 2026-05-05 18:29 | 38.39407 | -0.17891 | 33924 ft | 486 kts | 66° |
| 2026-05-05 18:29 | 38.42089 | -0.09993 | 33922 ft | 485 kts | 66° |
| 2026-05-05 18:30 | 38.44738 | -0.02072 | 33920 ft | 485 kts | 66° |
| 2026-05-05 18:30 | 38.47327 | 0.05879 | 33923 ft | 485 kts | 68° |
| 2026-05-05 18:31 | 38.49841 | 0.13790 | 33933 ft | 484 kts | 68° |
| 2026-05-05 18:31 | 38.52364 | 0.21738 | 33932 ft | 483 kts | 68° |
| 2026-05-05 18:32 | 38.54901 | 0.29674 | 33930 ft | 482 kts | 68° |
| 2026-05-05 18:32 | 38.57438 | 0.37598 | 33927 ft | 482 kts | 68° |
| 2026-05-05 18:33 | 38.59955 | 0.45532 | 33922 ft | 482 kts | 68° |
| 2026-05-05 18:33 | 38.62466 | 0.53472 | 33918 ft | 482 kts | 68° |
| 2026-05-05 18:34 | 38.64957 | 0.61365 | 33920 ft | 482 kts | 68° |
| 2026-05-05 18:34 | 38.67083 | 0.69478 | 33918 ft | 480 kts | 80° |
| 2026-05-05 18:35 | 38.68045 | 0.77918 | 33918 ft | 480 kts | 83° |
| 2026-05-05 18:35 | 38.68974 | 0.86372 | 33914 ft | 479 kts | 83° |
| 2026-05-05 18:36 | 38.69908 | 0.94817 | 33915 ft | 480 kts | 83° |
| 2026-05-05 18:36 | 38.70858 | 1.03281 | 33920 ft | 480 kts | 81° |
| 2026-05-05 18:37 | 38.71812 | 1.07373 | 33923 ft | 481 kts | 69° |
| 2026-05-05 18:37 | 38.73032 | 1.11302 | 33921 ft | 481 kts | 69° |
| 2026-05-05 18:37 | 38.75520 | 1.19251 | 33925 ft | 481 kts | 69° |
| 2026-05-05 18:38 | 38.78007 | 1.27200 | 33923 ft | 480 kts | 69° |
| 2026-05-05 18:38 | 38.80480 | 1.35151 | 33908 ft | 481 kts | 69° |
| 2026-05-05 18:39 | 38.81715 | 1.39133 | 33654 ft | 481 kts | 69° |
| 2026-05-05 18:39 | 38.82949 | 1.43116 | 33404 ft | 481 kts | 69° |
| 2026-05-05 18:39 | 38.84183 | 1.47104 | 32576 ft | 484 kts | 69° |
| 2026-05-05 18:39 | 38.85436 | 1.51167 | 31319 ft | 494 kts | 69° |
| 2026-05-05 18:40 | 38.86702 | 1.55281 | 30349 ft | 496 kts | 69° |
| 2026-05-05 18:40 | 38.87937 | 1.59315 | 29735 ft | 490 kts | 69° |
| 2026-05-05 18:40 | 38.89176 | 1.63368 | 28994 ft | 486 kts | 69° |
| 2026-05-05 18:40 | 38.90410 | 1.67393 | 28294 ft | 482 kts | 69° |
| 2026-05-05 18:41 | 38.91636 | 1.71379 | 27588 ft | 478 kts | 69° |
| 2026-05-05 18:41 | 38.92852 | 1.75338 | 26902 ft | 475 kts | 69° |
| 2026-05-05 18:41 | 38.94058 | 1.79266 | 26220 ft | 471 kts | 69° |
| 2026-05-05 18:41 | 38.95249 | 1.83167 | 25539 ft | 467 kts | 69° |
| 2026-05-05 18:42 | 38.96428 | 1.87041 | 24868 ft | 464 kts | 69° |
| 2026-05-05 18:42 | 38.97592 | 1.90880 | 24206 ft | 460 kts | 69° |
| 2026-05-05 18:42 | 38.98749 | 1.94689 | 23567 ft | 455 kts | 69° |
| 2026-05-05 18:42 | 38.99893 | 1.98461 | 22968 ft | 450 kts | 69° |
| 2026-05-05 18:43 | 39.01009 | 2.02146 | 22403 ft | 446 kts | 69° |
| 2026-05-05 18:43 | 39.02126 | 2.05838 | 21847 ft | 441 kts | 69° |
| 2026-05-05 18:43 | 39.03233 | 2.09504 | 21324 ft | 445 kts | 69° |
| 2026-05-05 18:43 | 39.04384 | 2.13326 | 20776 ft | 466 kts | 69° |
| 2026-05-05 18:44 | 39.05559 | 2.17228 | 20193 ft | 468 kts | 69° |
| 2026-05-05 18:44 | 39.06731 | 2.21122 | 19615 ft | 465 kts | 69° |
| 2026-05-05 18:44 | 39.07896 | 2.24988 | 19012 ft | 461 kts | 69° |
| 2026-05-05 18:44 | 39.09056 | 2.28801 | 18521 ft | 453 kts | 67° |
| 2026-05-05 18:45 | 39.10610 | 2.32219 | 18387 ft | 434 kts | 53° |
| 2026-05-05 18:45 | 39.12390 | 2.35273 | 18259 ft | 419 kts | 52° |
| 2026-05-05 18:45 | 39.14122 | 2.38213 | 18110 ft | 406 kts | 52° |
| 2026-05-05 18:45 | 39.15790 | 2.41043 | 17758 ft | 399 kts | 52° |
| 2026-05-05 18:46 | 39.17458 | 2.43873 | 17306 ft | 395 kts | 52° |
| 2026-05-05 18:46 | 39.19115 | 2.46683 | 16835 ft | 392 kts | 52° |
| 2026-05-05 18:46 | 39.20757 | 2.49465 | 16372 ft | 388 kts | 52° |
| 2026-05-05 18:46 | 39.22388 | 2.52227 | 15886 ft | 386 kts | 52° |
| 2026-05-05 18:47 | 39.24010 | 2.54970 | 15430 ft | 383 kts | 52° |
| 2026-05-05 18:47 | 39.25620 | 2.57690 | 14967 ft | 380 kts | 52° |
| 2026-05-05 18:47 | 39.27218 | 2.60391 | 14495 ft | 377 kts | 52° |
| 2026-05-05 18:47 | 39.28807 | 2.63074 | 14036 ft | 375 kts | 52° |
| 2026-05-05 18:48 | 39.30365 | 2.65702 | 13593 ft | 372 kts | 52° |
| 2026-05-05 18:48 | 39.31931 | 2.68341 | 13134 ft | 369 kts | 52° |
| 2026-05-05 18:48 | 39.33487 | 2.70963 | 12660 ft | 366 kts | 52° |
| 2026-05-05 18:48 | 39.35029 | 2.73561 | 12184 ft | 363 kts | 52° |
| 2026-05-05 18:49 | 39.36562 | 2.76141 | 11699 ft | 361 kts | 52° |
| 2026-05-05 18:49 | 39.38084 | 2.78701 | 11225 ft | 358 kts | 52° |
| 2026-05-05 18:49 | 39.39592 | 2.81239 | 10729 ft | 354 kts | 52° |
| 2026-05-05 18:49 | 39.41084 | 2.83748 | 10392 ft | 347 kts | 52° |
| 2026-05-05 18:50 | 39.42524 | 2.86170 | 10261 ft | 333 kts | 52° |
| 2026-05-05 18:50 | 39.43891 | 2.88468 | 10138 ft | 321 kts | 52° |
| 2026-05-05 18:50 | 39.45226 | 2.90714 | 9997 ft | 310 kts | 52° |
| 2026-05-05 18:50 | 39.46528 | 2.92904 | 9697 ft | 305 kts | 52° |
| 2026-05-05 18:51 | 39.47815 | 2.95068 | 9327 ft | 303 kts | 52° |
| 2026-05-05 18:51 | 39.49095 | 2.97223 | 8961 ft | 302 kts | 52° |
| 2026-05-05 18:51 | 39.50371 | 2.99368 | 8610 ft | 299 kts | 52° |
| 2026-05-05 18:51 | 39.51737 | 3.01373 | 8235 ft | 296 kts | 37° |
| 2026-05-05 18:52 | 39.53552 | 3.02525 | 7853 ft | 290 kts | 10° |
| 2026-05-05 18:52 | 39.55535 | 3.02648 | 7279 ft | 284 kts | 354° |
| 2026-05-05 18:52 | 39.57499 | 3.02440 | 6599 ft | 282 kts | 352° |
| 2026-05-05 18:52 | 39.59392 | 3.02203 | 6465 ft | 267 kts | 352° |
| 2026-05-05 18:53 | 39.61199 | 3.01974 | 6339 ft | 256 kts | 352° |
| 2026-05-05 18:53 | 39.62932 | 3.01756 | 6211 ft | 245 kts | 352° |
| 2026-05-05 18:53 | 39.64574 | 3.01551 | 6024 ft | 237 kts | 352° |
| 2026-05-05 18:53 | 39.66207 | 3.01348 | 5727 ft | 235 kts | 352° |
| 2026-05-05 18:54 | 39.67822 | 3.01102 | 5403 ft | 232 kts | 343° |
| 2026-05-05 18:54 | 39.69185 | 3.00111 | 5094 ft | 224 kts | 309° |
| 2026-05-05 18:54 | 39.69864 | 2.98359 | 4754 ft | 218 kts | 275° |
| 2026-05-05 18:54 | 39.69653 | 2.96468 | 4401 ft | 213 kts | 241° |
| 2026-05-05 18:55 | 39.68615 | 2.95140 | 3978 ft | 215 kts | 207° |
| 2026-05-05 18:55 | 39.67290 | 2.94272 | 3673 ft | 208 kts | 208° |
| 2026-05-05 18:55 | 39.66056 | 2.93403 | 3429 ft | 197 kts | 209° |
| 2026-05-05 18:55 | 39.64984 | 2.92338 | 3202 ft | 193 kts | 227° |
| 2026-05-05 18:56 | 39.64155 | 2.90971 | 2950 ft | 193 kts | 235° |
| 2026-05-05 18:56 | 39.63434 | 2.89536 | 2726 ft | 192 kts | 237° |
| 2026-05-05 18:56 | 39.62731 | 2.88063 | 2477 ft | 189 kts | 237° |
| 2026-05-05 18:56 | 39.62069 | 2.86662 | 2223 ft | 176 kts | 238° |
| 2026-05-05 18:57 | 39.61469 | 2.85388 | 1998 ft | 157 kts | 238° |
| 2026-05-05 18:57 | 39.60917 | 2.84214 | 1793 ft | 149 kts | 238° |
| 2026-05-05 18:57 | 39.60380 | 2.83075 | 1598 ft | 147 kts | 238° |
| 2026-05-05 18:57 | 39.59849 | 2.81948 | 1408 ft | 146 kts | 238° |
| 2026-05-05 18:58 | 39.59321 | 2.80828 | 1212 ft | 145 kts | 238° |
| 2026-05-05 18:58 | 39.58796 | 2.79715 | 1020 ft | 144 kts | 238° |
| 2026-05-05 18:58 | 39.58273 | 2.78606 | 829 ft | 144 kts | 238° |
| 2026-05-05 18:58 | 39.57751 | 2.77499 | 640 ft | 144 kts | 238° |
| 2026-05-05 18:59 | 39.57230 | 2.76397 | 448 ft | 143 kts | 238° |
| 2026-05-05 18:59 | 39.56718 | 2.75312 | 261 ft | 143 kts | 238° |
| 2026-05-05 18:59 | 39.56201 | 2.74218 | 69 ft | 142 kts | 238° |
| 2026-05-05 18:59 | 39.55707 | 2.73173 | 38 ft | 102 kts | 238° |
| 2026-05-05 19:00 | 39.55536 | 2.72813 | 36 ft | 25 kts | 237° |
| 2026-05-05 19:00 | 39.55434 | 2.72705 | 37 ft | 16 kts | 210° |
| 2026-05-05 19:00 | 39.55352 | 2.72645 | 37 ft | 0 kts | 210° |
| 2026-05-05 19:01 | 39.55324 | 2.72624 | 38 ft | 5 kts | 209° |
| 2026-05-05 19:01 | 39.55295 | 2.72605 | 38 ft | 4 kts | 199° |
| 2026-05-05 19:02 | 39.55254 | 2.72626 | 36 ft | 7 kts | 116° |
| 2026-05-05 19:02 | 39.55267 | 2.72681 | 37 ft | 6 kts | 63° |
| 2026-05-05 19:02 | 39.55304 | 2.72759 | 38 ft | 11 kts | 57° |
| 2026-05-05 19:02 | 39.55344 | 2.72839 | 37 ft | 10 kts | 57° |
| 2026-05-05 19:03 | 39.55378 | 2.72911 | 38 ft | 9 kts | 66° |
| 2026-05-05 19:03 | 39.55367 | 2.72977 | 36 ft | 7 kts | 125° |
| 2026-05-05 19:03 | 39.55330 | 2.73015 | 38 ft | 6 kts | 149° |
| 2026-05-05 19:03 | 39.55295 | 2.73036 | 38 ft | 5 kts | 161° |
| 2026-05-05 19:04 | 39.55263 | 2.73038 | 38 ft | 4 kts | 190° |
| 2026-05-05 19:04 | 39.55240 | 2.73015 | 36 ft | 6 kts | 228° |
| 2026-05-05 19:04 | 39.55216 | 2.72969 | 38 ft | 6 kts | 240° |
| 2026-05-05 19:04 | 39.55199 | 2.72927 | 38 ft | 5 kts | 242° |
| 2026-05-05 19:05 | 39.55182 | 2.72894 | 37 ft | 4 kts | 227° |
| 2026-05-05 19:05 | 39.55154 | 2.72884 | 38 ft | 6 kts | 180° |
| 2026-05-05 19:05 | 39.55132 | 2.72890 | 38 ft | 3 kts | 165° |
| 2026-05-05 19:05 | 39.55116 | 2.72896 | 38 ft | 2 kts | 165° |
| 2026-05-05 19:06 | 39.55106 | 2.72900 | 38 ft | 1 kts | 162° |
| 2026-05-05 19:06 | 39.55102 | 2.72902 | 38 ft | 0 kts | 162° |
| 2026-05-05 19:11 | 39.55099 | 2.72903 | 38 ft | 0 kts | 163° |
| 2026-05-05 19:38 | 39.55109 | 2.72899 | 38 ft | 4 kts | 163° |
| 2026-05-05 19:38 | 39.55134 | 2.72890 | 38 ft | 3 kts | 163° |
| 2026-05-05 19:38 | 39.55156 | 2.72884 | 38 ft | 4 kts | 189° |
| 2026-05-05 19:39 | 39.55179 | 2.72897 | 38 ft | 4 kts | 224° |
| 2026-05-05 19:39 | 39.55195 | 2.72923 | 38 ft | 2 kts | 239° |
| 2026-05-05 19:39 | 39.55185 | 2.72897 | 38 ft | 12 kts | 231° |
| 2026-05-05 19:39 | 39.55161 | 2.72881 | 38 ft | 9 kts | 307° |
| 2026-05-05 19:40 | 39.55205 | 2.72945 | 38 ft | 15 kts | 58° |
| 2026-05-05 19:40 | 39.55246 | 2.73031 | 38 ft | 8 kts | 42° |
| 2026-05-05 19:40 | 39.55305 | 2.73028 | 37 ft | 13 kts | 333° |
| 2026-05-05 19:40 | 39.55321 | 2.72940 | 38 ft | 15 kts | 240° |
| 2026-05-05 19:41 | 39.55266 | 2.72820 | 36 ft | 15 kts | 239° |
| 2026-05-05 19:41 | 39.55210 | 2.72700 | 38 ft | 15 kts | 239° |
| 2026-05-05 19:41 | 39.55168 | 2.72609 | 37 ft | 12 kts | 239° |
| 2026-05-05 19:41 | 39.55125 | 2.72519 | 38 ft | 8 kts | 220° |
| 2026-05-05 19:42 | 39.55058 | 2.72535 | 37 ft | 8 kts | 140° |
| 2026-05-05 19:42 | 39.55042 | 2.72584 | 38 ft | 9 kts | 87° |
| 2026-05-05 19:42 | 39.55069 | 2.72654 | 38 ft | 11 kts | 58° |
| 2026-05-05 19:42 | 39.55098 | 2.72750 | 38 ft | 13 kts | 108° |
| 2026-05-05 19:43 | 39.55096 | 2.72727 | 37 ft | 11 kts | 279° |
| 2026-05-05 19:43 | 39.55100 | 2.72741 | 38 ft | 7 kts | 90° |
| 2026-05-05 19:43 | 39.55072 | 2.72783 | 37 ft | 5 kts | 145° |
| 2026-05-05 19:43 | 39.55051 | 2.72801 | 38 ft | 1 kts | 146° |